createdAt,value
2023-10-03T00:00:34.884Z,74.90
2023-10-03T00:04:14.304Z,74.81
2023-10-03T00:07:16.281Z,75.06
2023-10-03T00:10:19.925Z,74.76
2023-10-03T00:13:22.532Z,74.85
2023-10-03T00:16:24.411Z,74.96
2023-10-03T00:19:26.313Z,74.88
2023-10-03T00:22:28.419Z,74.85
2023-10-03T00:25:31.160Z,75.06
2023-10-03T00:28:34.300Z,75.18
2023-10-03T00:31:36.328Z,75.38
2023-10-03T00:34:57.180Z,75.41
2023-10-03T00:38:35.970Z,75.38
2023-10-03T00:41:38.162Z,75.55
2023-10-03T00:44:40.279Z,75.72
2023-10-03T00:47:42.319Z,75.53
2023-10-03T00:50:45.536Z,75.56
2023-10-03T00:53:51.452Z,75.71
2023-10-03T00:56:53.531Z,75.72
2023-10-03T00:59:59.383Z,75.62
2023-10-03T01:03:01.484Z,75.35
2023-10-03T01:06:12.985Z,75.55
2023-10-03T01:09:23.594Z,75.89
2023-10-03T01:12:26.310Z,75.70
2023-10-03T01:15:29.326Z,75.82
2023-10-03T01:18:32.533Z,75.64
2023-10-03T01:21:35.496Z,75.60
2023-10-03T01:24:39.076Z,75.55
2023-10-03T01:27:40.929Z,75.53
2023-10-03T01:30:43.040Z,75.54
2023-10-03T01:33:46.904Z,75.63
2023-10-03T01:36:48.776Z,75.61
2023-10-03T01:39:50.731Z,75.68
2023-10-03T01:42:52.805Z,75.61
2023-10-03T01:45:55.624Z,76.05
2023-10-03T01:48:57.689Z,75.91
2023-10-03T01:51:59.549Z,76.11
2023-10-03T01:55:01.562Z,76.07
2023-10-03T01:58:04.862Z,76.18
2023-10-03T02:01:06.816Z,76.34
2023-10-03T02:04:08.951Z,76.31
2023-10-03T02:07:12.462Z,76.65
2023-10-03T02:10:14.986Z,76.51
2023-10-03T02:13:19.012Z,76.41
2023-10-03T02:16:22.912Z,76.60
2023-10-03T02:19:25.035Z,76.57
2023-10-03T02:22:26.954Z,76.80
2023-10-03T02:25:29.775Z,76.69
2023-10-03T02:28:34.135Z,76.63
2023-10-03T02:31:38.136Z,76.77
2023-10-03T02:34:40.290Z,76.75
2023-10-03T02:37:42.780Z,76.85
2023-10-03T02:40:44.779Z,76.74
2023-10-03T02:43:47.668Z,76.93
2023-10-03T02:46:56.022Z,77.00
2023-10-03T02:49:59.571Z,77.00
2023-10-03T02:53:12.103Z,77.21
2023-10-03T02:56:14.659Z,77.29
2023-10-03T02:59:16.812Z,77.46
2023-10-03T03:02:18.798Z,77.40
2023-10-03T03:05:23.622Z,77.47
2023-10-03T03:08:29.352Z,77.65
2023-10-03T03:11:32.559Z,77.59
2023-10-03T03:14:34.561Z,77.69
2023-10-03T03:17:36.849Z,77.60
2023-10-03T03:20:42.926Z,77.80
2023-10-03T03:24:01.197Z,77.99
2023-10-03T03:27:11.827Z,77.63
2023-10-03T03:30:28.800Z,77.58
2023-10-03T03:33:31.956Z,77.67
2023-10-03T03:36:35.416Z,77.72
2023-10-03T03:39:37.350Z,77.67
2023-10-03T03:42:39.328Z,77.68
2023-10-03T03:45:41.596Z,77.49
2023-10-03T03:48:43.605Z,77.82
2023-10-03T03:51:45.745Z,77.61
2023-10-03T03:54:50.116Z,77.68
2023-10-03T03:57:52.529Z,77.52
2023-10-03T04:00:55.528Z,77.90
2023-10-03T04:04:00.037Z,77.62
2023-10-03T04:07:02.888Z,77.48
2023-10-03T04:10:14.334Z,77.67
2023-10-03T04:13:18.062Z,77.66
2023-10-03T04:16:22.453Z,77.77
2023-10-03T04:19:24.379Z,77.70
2023-10-03T04:22:29.320Z,77.78
2023-10-03T04:25:33.177Z,77.87
2023-10-03T04:28:35.716Z,77.86
2023-10-03T04:31:38.040Z,77.85
2023-10-03T04:34:39.922Z,77.98
2023-10-03T04:37:45.093Z,78.03
2023-10-03T04:40:48.192Z,77.83
2023-10-03T04:43:50.470Z,78.01
2023-10-03T04:46:52.343Z,78.00
2023-10-03T04:50:00.450Z,78.27
2023-10-03T04:53:03.432Z,78.18
2023-10-03T04:56:05.337Z,78.03
2023-10-03T04:59:08.304Z,78.23
2023-10-03T05:02:11.767Z,77.97
2023-10-03T05:05:24.737Z,78.29
2023-10-03T05:08:26.742Z,78.34
2023-10-03T05:11:30.345Z,78.17
2023-10-03T05:14:33.188Z,78.13
2023-10-03T05:17:36.444Z,78.14
2023-10-03T05:20:38.594Z,78.12
2023-10-03T05:23:41.975Z,78.15
2023-10-03T05:26:43.934Z,78.20
2023-10-03T05:29:46.159Z,78.24
2023-10-03T05:32:48.293Z,78.29
2023-10-03T05:35:50.574Z,78.26
2023-10-03T05:38:52.584Z,78.11
2023-10-03T05:41:57.717Z,78.18
2023-10-03T05:44:59.750Z,78.23
2023-10-03T05:48:03.791Z,78.03
2023-10-03T05:51:08.690Z,78.08
2023-10-03T05:54:10.700Z,77.98
2023-10-03T05:57:12.582Z,78.00
2023-10-03T06:00:21.859Z,77.95
2023-10-03T06:03:23.916Z,78.07
2023-10-03T06:06:29.469Z,77.90
2023-10-03T06:09:31.359Z,77.74
2023-10-03T06:12:33.321Z,77.91
2023-10-03T06:15:37.027Z,77.91
2023-10-03T06:18:42.303Z,77.97
2023-10-03T06:21:44.558Z,77.65
2023-10-03T06:24:47.518Z,77.85
2023-10-03T06:27:49.443Z,77.68
2023-10-03T06:30:52.959Z,77.73
2023-10-03T06:33:55.148Z,77.42
2023-10-03T06:36:57.291Z,77.48
2023-10-03T06:39:59.189Z,77.34
2023-10-03T06:43:01.220Z,77.14
2023-10-03T06:46:06.414Z,77.00
2023-10-03T06:49:11.173Z,76.66
2023-10-03T06:52:13.128Z,76.52
2023-10-03T06:55:16.406Z,76.38
2023-10-03T06:58:18.379Z,76.02
2023-10-03T07:01:20.309Z,75.81
2023-10-03T07:04:22.359Z,75.63
2023-10-03T07:07:24.481Z,75.56
2023-10-03T07:10:26.662Z,75.56
2023-10-03T07:13:29.658Z,75.16
2023-10-03T07:16:38.745Z,75.00
2023-10-03T07:19:41.480Z,74.98
2023-10-03T07:22:43.464Z,74.84
2023-10-03T07:25:45.535Z,74.55
2023-10-03T07:28:47.619Z,74.31
2023-10-03T07:31:49.514Z,74.18
2023-10-03T07:34:51.446Z,73.80
2023-10-03T07:37:53.345Z,74.02
2023-10-03T07:40:55.423Z,73.98
2023-10-03T07:43:57.332Z,73.74
2023-10-03T07:46:59.310Z,73.45
2023-10-03T07:50:01.428Z,73.30
2023-10-03T07:53:11.734Z,73.14
2023-10-03T07:56:30.598Z,72.68
2023-10-03T07:59:32.980Z,72.34
2023-10-03T08:02:35.151Z,72.39
2023-10-03T08:05:38.263Z,72.44
2023-10-03T08:08:40.220Z,72.18
2023-10-03T08:11:46.806Z,72.22
2023-10-03T08:14:52.529Z,72.17
2023-10-03T08:17:56.934Z,71.97
2023-10-03T08:20:58.912Z,71.51
2023-10-03T08:24:10.346Z,71.53
2023-10-03T08:27:19.176Z,71.62
2023-10-03T08:30:28.956Z,71.49
2023-10-03T08:33:37.034Z,71.30
2023-10-03T08:36:39.061Z,71.22
2023-10-03T08:39:41.294Z,70.92
2023-10-03T08:42:44.853Z,70.71
2023-10-03T08:45:53.379Z,70.67
2023-10-03T08:49:01.348Z,70.58
2023-10-03T08:52:06.800Z,70.70
2023-10-03T08:55:09.931Z,70.26
2023-10-03T08:58:13.847Z,69.91
2023-10-03T09:01:20.063Z,69.73
2023-10-03T09:04:24.009Z,69.70
2023-10-03T09:07:26.026Z,69.58
2023-10-03T09:10:31.883Z,69.41
2023-10-03T09:13:34.630Z,68.81
2023-10-03T09:16:39.310Z,68.98
2023-10-03T09:19:44.728Z,68.79
2023-10-03T09:22:47.504Z,68.61
2023-10-03T09:25:56.340Z,68.39
2023-10-03T09:28:59.261Z,68.17
2023-10-03T09:32:13.528Z,68.06
2023-10-03T09:35:15.725Z,67.87
2023-10-03T09:38:21.884Z,67.87
2023-10-03T09:41:26.858Z,66.98
2023-10-03T09:44:31.967Z,67.28
2023-10-03T09:47:38.388Z,67.24
2023-10-03T09:50:52.354Z,67.28
2023-10-03T09:53:57.282Z,66.85
2023-10-03T09:57:01.389Z,66.72
2023-10-03T10:00:24.058Z,66.54
2023-10-03T10:03:33.902Z,66.71
2023-10-03T10:07:00.179Z,66.21
2023-10-03T10:10:10.570Z,65.74
2023-10-03T10:13:21.510Z,65.15
2023-10-03T10:16:24.496Z,64.83
2023-10-03T10:20:06.109Z,65.60
2023-10-03T10:23:11.997Z,65.58
2023-10-03T10:26:31.533Z,64.49
2023-10-03T10:29:36.344Z,64.34
2023-10-03T10:32:38.983Z,64.01
2023-10-03T10:36:10.962Z,63.53
2023-10-03T10:39:13.830Z,63.18
2023-10-03T10:42:16.689Z,62.95
2023-10-03T10:45:21.416Z,62.52
2023-10-03T10:48:41.513Z,62.21
2023-10-03T10:51:55.985Z,62.34
2023-10-03T10:54:59.753Z,61.68
2023-10-03T10:58:10.418Z,61.35
2023-10-03T11:01:13.992Z,61.26
2023-10-03T11:04:26.665Z,61.01
2023-10-03T11:07:30.079Z,61.02
2023-10-03T11:10:35.781Z,60.70
2023-10-03T11:13:46.584Z,60.42
2023-10-03T11:16:48.619Z,60.52
2023-10-03T11:19:51.804Z,59.67
2023-10-03T11:22:55.527Z,59.58
2023-10-03T11:25:58.624Z,59.71
2023-10-03T11:29:00.638Z,59.05
2023-10-03T11:32:04.382Z,58.71
2023-10-03T11:35:21.519Z,58.85
2023-10-03T11:38:23.492Z,58.46
2023-10-03T11:41:35.114Z,58.31
2023-10-03T11:44:37.911Z,58.21
2023-10-03T11:47:40.477Z,57.55
2023-10-03T11:50:43.529Z,57.89
2023-10-03T11:53:46.304Z,57.80
2023-10-03T11:56:48.672Z,57.50
2023-10-03T11:59:50.786Z,57.77
2023-10-03T12:02:53.318Z,57.08
2023-10-03T12:05:57.666Z,56.74
2023-10-03T12:08:59.643Z,56.83
2023-10-03T12:12:01.845Z,57.39
2023-10-03T12:15:12.725Z,57.23
2023-10-03T12:18:16.126Z,56.86
2023-10-03T12:21:18.653Z,56.55
2023-10-03T12:24:20.943Z,55.96
2023-10-03T12:27:22.986Z,56.11
2023-10-03T12:30:25.754Z,55.79
2023-10-03T12:33:29.106Z,55.90
2023-10-03T12:36:34.625Z,56.07
2023-10-03T12:39:36.670Z,56.32
2023-10-03T12:42:41.524Z,56.29
2023-10-03T12:45:43.532Z,56.03
2023-10-03T12:48:46.334Z,56.04
2023-10-03T12:51:49.144Z,55.74
2023-10-03T12:54:52.209Z,55.34
2023-10-03T12:58:04.090Z,54.76
2023-10-03T13:01:06.098Z,54.92
2023-10-03T13:04:08.273Z,54.81
2023-10-03T13:07:12.480Z,54.05
2023-10-03T13:10:15.953Z,53.69
2023-10-03T13:13:17.847Z,52.85
2023-10-03T13:16:20.927Z,53.28
2023-10-03T13:19:24.674Z,52.86
2023-10-03T13:22:28.072Z,53.25
2023-10-03T13:25:30.074Z,53.55
2023-10-03T13:28:32.532Z,53.55
2023-10-03T13:31:36.687Z,53.14
2023-10-03T13:34:38.829Z,53.07
2023-10-03T13:37:40.652Z,53.29
2023-10-03T13:40:44.010Z,53.95
2023-10-03T13:43:45.929Z,53.01
2023-10-03T13:46:47.930Z,52.87
2023-10-03T13:49:50.098Z,53.13
2023-10-03T13:52:55.447Z,53.41
2023-10-03T13:55:59.466Z,53.43
2023-10-03T13:59:03.402Z,52.97
2023-10-03T14:02:05.877Z,52.74
2023-10-03T14:05:10.496Z,52.64
2023-10-03T14:08:12.522Z,52.84
2023-10-03T14:11:21.632Z,52.72
2023-10-03T14:14:24.300Z,52.75
2023-10-03T14:17:26.413Z,52.72
2023-10-03T14:20:29.223Z,53.02
2023-10-03T14:23:32.313Z,52.74
2023-10-03T14:26:35.357Z,52.75
2023-10-03T14:29:38.027Z,52.76
2023-10-03T14:32:43.357Z,52.59
2023-10-03T14:35:46.467Z,52.48
2023-10-03T14:38:49.369Z,52.62
2023-10-03T14:41:52.334Z,52.74
2023-10-03T14:44:54.261Z,53.08
2023-10-03T14:47:59.567Z,52.92
2023-10-03T14:51:02.235Z,53.11
2023-10-03T14:54:05.153Z,53.38
2023-10-03T14:57:07.119Z,53.45
2023-10-03T15:00:09.990Z,53.62
2023-10-03T15:03:12.007Z,53.65
2023-10-03T15:06:14.183Z,53.74
2023-10-03T15:09:16.085Z,53.69
2023-10-03T15:12:19.033Z,53.85
2023-10-03T15:15:21.144Z,54.26
2023-10-03T15:18:25.032Z,54.55
2023-10-03T15:21:27.213Z,54.66
2023-10-03T15:24:30.677Z,54.78
2023-10-03T15:27:34.189Z,55.09
2023-10-03T15:30:43.215Z,55.22
2023-10-03T15:33:46.044Z,55.45
2023-10-03T15:36:48.524Z,55.43
2023-10-03T15:39:52.400Z,55.66
2023-10-03T15:42:55.273Z,55.91
2023-10-03T15:46:00.879Z,56.25
2023-10-03T15:49:03.414Z,56.53
2023-10-03T15:52:05.638Z,56.48
2023-10-03T15:55:13.303Z,56.83
2023-10-03T15:58:15.274Z,56.63
2023-10-03T16:01:17.520Z,56.92
2023-10-03T16:04:19.910Z,57.38
2023-10-03T16:07:21.931Z,57.39
2023-10-03T16:10:24.313Z,57.60
2023-10-03T16:13:26.255Z,57.61
2023-10-03T16:16:28.303Z,57.49
2023-10-03T16:19:31.366Z,58.00
2023-10-03T16:22:34.192Z,58.28
2023-10-03T16:25:38.786Z,58.31
2023-10-03T16:28:40.761Z,58.44
2023-10-03T16:31:42.759Z,58.51
2023-10-03T16:34:44.735Z,58.78
2023-10-03T16:37:46.630Z,58.85
2023-10-03T16:40:48.919Z,59.02
2023-10-03T16:43:50.932Z,59.29
2023-10-03T16:46:53.899Z,59.37
2023-10-03T16:49:56.539Z,59.60
2023-10-03T16:52:58.560Z,59.87
2023-10-03T16:56:01.118Z,59.97
2023-10-03T16:59:03.881Z,60.16
2023-10-03T17:02:05.994Z,60.33
2023-10-03T17:05:16.125Z,60.39
2023-10-03T17:08:18.381Z,60.52
2023-10-03T17:11:20.782Z,60.53
2023-10-03T17:14:22.665Z,60.63
2023-10-03T17:17:24.574Z,60.84
2023-10-03T17:20:26.627Z,60.84
2023-10-03T17:23:29.957Z,60.96
2023-10-03T17:26:33.369Z,61.09
2023-10-03T17:29:35.484Z,61.28
2023-10-03T17:32:38.017Z,61.45
2023-10-03T17:35:39.981Z,61.69
2023-10-03T17:38:41.879Z,61.77
2023-10-03T17:41:43.835Z,61.89
2023-10-03T17:44:48.609Z,62.04
2023-10-03T17:47:50.690Z,62.12
2023-10-03T17:50:52.835Z,62.06
2023-10-03T17:53:55.578Z,61.85
2023-10-03T17:56:57.831Z,62.02
2023-10-03T18:00:06.838Z,62.19
2023-10-03T18:03:09.183Z,62.27
2023-10-03T18:06:11.434Z,62.38
2023-10-03T18:09:15.492Z,62.40
2023-10-03T18:12:18.039Z,62.67
2023-10-03T18:15:20.114Z,62.79
2023-10-03T18:18:22.279Z,62.75
2023-10-03T18:21:24.542Z,62.95
2023-10-03T18:24:27.758Z,62.96
2023-10-03T18:27:30.274Z,62.82
2023-10-03T18:30:33.175Z,62.76
2023-10-03T18:33:35.312Z,62.67
2023-10-03T18:36:37.414Z,62.57
2023-10-03T18:39:39.337Z,62.64
2023-10-03T18:42:41.272Z,62.64
2023-10-03T18:45:55.664Z,62.64
2023-10-03T18:48:59.739Z,62.75
2023-10-03T18:52:02.034Z,62.64
2023-10-03T18:55:04.177Z,62.56
2023-10-03T18:58:06.045Z,62.81
2023-10-03T19:01:16.604Z,62.79
2023-10-03T19:04:20.479Z,62.90
2023-10-03T19:07:22.589Z,63.04
2023-10-03T19:10:24.487Z,63.07
2023-10-03T19:13:27.997Z,62.82
2023-10-03T19:16:30.003Z,62.95
2023-10-03T19:19:37.444Z,63.17
2023-10-03T19:22:39.511Z,62.96
2023-10-03T19:25:41.723Z,62.85
2023-10-03T19:28:43.861Z,62.90
2023-10-03T19:31:45.873Z,62.97
2023-10-03T19:34:48.450Z,62.96
2023-10-03T19:37:50.468Z,63.06
2023-10-03T19:40:52.332Z,62.99
2023-10-03T19:43:57.229Z,63.22
2023-10-03T19:47:01.493Z,63.09
2023-10-03T19:50:04.770Z,63.11
2023-10-03T19:53:06.996Z,63.33
2023-10-03T19:56:11.845Z,63.43
2023-10-03T19:59:13.766Z,63.32
2023-10-03T20:02:16.119Z,63.27
2023-10-03T20:05:17.991Z,63.32
2023-10-03T20:08:19.890Z,63.41
2023-10-03T20:11:21.821Z,63.56
2023-10-03T20:14:24.658Z,63.86
2023-10-03T20:17:26.530Z,63.76
2023-10-03T20:20:29.674Z,63.67
2023-10-03T20:23:33.650Z,63.82
2023-10-03T20:26:35.545Z,63.91
2023-10-03T20:29:37.403Z,63.84
2023-10-03T20:32:40.813Z,63.94
2023-10-03T20:35:42.782Z,64.09
2023-10-03T20:38:44.765Z,63.98
2023-10-03T20:41:47.133Z,64.12
2023-10-03T20:44:49.153Z,64.10
2023-10-03T20:47:51.422Z,64.16
2023-10-03T20:50:53.426Z,64.13
2023-10-03T20:53:55.356Z,63.99
2023-10-03T20:56:57.382Z,64.07
2023-10-03T21:00:00.322Z,64.14
2023-10-03T21:03:02.474Z,64.11
2023-10-03T21:06:05.245Z,64.31
2023-10-03T21:09:11.870Z,64.47
2023-10-03T21:12:13.794Z,64.60
2023-10-03T21:15:16.849Z,64.58
2023-10-03T21:18:19.470Z,64.43
2023-10-03T21:21:21.531Z,64.56
2023-10-03T21:24:24.093Z,64.45
2023-10-03T21:27:27.269Z,64.51
2023-10-03T21:30:29.335Z,64.57
2023-10-03T21:33:31.455Z,64.62
2023-10-03T21:36:33.499Z,64.85
2023-10-03T21:39:35.583Z,64.75
2023-10-03T21:42:41.215Z,65.02
2023-10-03T21:45:43.572Z,64.97
2023-10-03T21:48:45.588Z,65.08
2023-10-03T21:51:48.080Z,64.98
2023-10-03T21:54:51.736Z,64.86
2023-10-03T21:57:54.555Z,64.91
2023-10-03T22:00:59.369Z,64.68
2023-10-03T22:04:01.941Z,64.88
2023-10-03T22:07:04.374Z,64.70
2023-10-03T22:10:09.863Z,64.89
2023-10-03T22:13:12.961Z,65.29
2023-10-03T22:16:16.629Z,65.83
2023-10-03T22:19:21.342Z,68.20
2023-10-03T22:22:23.946Z,69.57
2023-10-03T22:25:26.109Z,70.69
2023-10-03T22:28:28.002Z,71.05
2023-10-03T22:31:30.168Z,71.91
2023-10-03T22:34:33.991Z,72.69
2023-10-03T22:37:36.590Z,73.23
2023-10-03T22:40:40.177Z,73.56
2023-10-03T22:43:42.076Z,74.29
2023-10-03T22:46:44.030Z,74.63
2023-10-03T22:49:45.906Z,75.20
2023-10-03T22:52:48.972Z,75.81
2023-10-03T22:55:52.077Z,75.95
2023-10-03T22:58:54.083Z,76.16
2023-10-03T23:01:56.328Z,75.97
2023-10-03T23:04:58.322Z,74.92
2023-10-03T23:08:00.562Z,74.31
2023-10-03T23:11:03.826Z,74.01
2023-10-03T23:14:05.786Z,74.39
2023-10-03T23:17:07.667Z,74.66
2023-10-03T23:20:11.608Z,74.45
2023-10-03T23:23:13.501Z,74.20
2023-10-03T23:26:15.598Z,74.86
2023-10-03T23:29:17.450Z,75.49
2023-10-03T23:32:19.473Z,75.94
2023-10-03T23:35:21.935Z,75.96
2023-10-03T23:38:24.274Z,76.23
2023-10-03T23:41:28.974Z,76.20
2023-10-03T23:44:31.282Z,76.52
2023-10-03T23:47:35.086Z,76.56
2023-10-03T23:50:37.038Z,76.77
2023-10-03T23:53:38.924Z,77.05
2023-10-03T23:56:43.352Z,77.06
2023-10-03T23:59:45.252Z,77.26
